createdAt,value
2022-10-19T00:01:16.271Z,10.09
2022-10-19T00:03:45.168Z,10.00
2022-10-19T00:06:25.041Z,9.99
2022-10-19T00:09:05.219Z,9.94
2022-10-19T00:11:33.011Z,9.93
2022-10-19T00:14:00.677Z,9.89
2022-10-19T00:16:29.913Z,9.88
2022-10-19T00:18:58.334Z,9.85
2022-10-19T00:21:25.879Z,9.78
2022-10-19T00:23:52.716Z,9.81
2022-10-19T00:26:19.580Z,9.71
2022-10-19T00:28:46.737Z,9.67
2022-10-19T00:31:17.137Z,9.68
2022-10-19T00:33:46.654Z,9.66
2022-10-19T00:36:34.209Z,9.61
2022-10-19T00:39:02.045Z,9.58
2022-10-19T00:41:31.204Z,9.58
2022-10-19T00:44:00.848Z,9.56
2022-10-19T00:46:30.370Z,9.56
2022-10-19T00:49:01.440Z,9.51
2022-10-19T00:51:29.506Z,9.47
2022-10-19T00:53:56.917Z,9.47
2022-10-19T00:56:24.444Z,9.43
2022-10-19T00:58:51.352Z,9.42
2022-10-19T01:01:20.696Z,9.49
2022-10-19T01:03:48.098Z,9.56
2022-10-19T01:06:17.584Z,9.64
2022-10-19T01:08:44.565Z,9.76
2022-10-19T01:11:39.054Z,9.75
2022-10-19T01:14:24.974Z,9.73
2022-10-19T01:17:14.113Z,9.75
2022-10-19T01:19:59.301Z,9.69
2022-10-19T01:22:55.422Z,9.65
2022-10-19T01:25:24.983Z,9.60
2022-10-19T01:28:16.144Z,9.58
2022-10-19T01:31:01.996Z,9.53
2022-10-19T01:33:39.788Z,9.48
2022-10-19T01:36:34.629Z,9.52
2022-10-19T01:39:25.085Z,9.55
2022-10-19T01:42:03.232Z,9.61
2022-10-19T01:44:45.477Z,9.63
2022-10-19T01:47:18.853Z,9.62
2022-10-19T01:50:10.454Z,9.61
2022-10-19T01:52:38.146Z,9.62
2022-10-19T01:55:05.752Z,9.59
2022-10-19T01:57:34.746Z,9.53
2022-10-19T02:00:07.360Z,9.40
2022-10-19T02:02:41.509Z,9.43
2022-10-19T02:05:08.869Z,9.44
2022-10-19T02:07:37.666Z,9.45
2022-10-19T02:10:04.974Z,9.48
2022-10-19T02:12:33.170Z,9.46
2022-10-19T02:15:06.497Z,9.48
2022-10-19T02:17:38.336Z,9.47
2022-10-19T02:20:05.710Z,9.55
2022-10-19T02:22:32.816Z,9.59
2022-10-19T02:25:00.280Z,9.55
2022-10-19T02:27:27.213Z,9.68
2022-10-19T02:29:54.278Z,9.65
2022-10-19T02:32:21.599Z,9.72
2022-10-19T02:34:48.465Z,9.82
2022-10-19T02:37:15.466Z,9.97
2022-10-19T02:39:42.644Z,10.16
2022-10-19T02:42:18.726Z,10.32
2022-10-19T02:44:53.354Z,10.46
2022-10-19T02:47:29.872Z,10.52
2022-10-19T02:49:56.963Z,10.43
2022-10-19T02:52:23.841Z,10.37
2022-10-19T02:54:50.676Z,10.37
2022-10-19T02:57:23.505Z,10.23
2022-10-19T02:59:51.037Z,10.17
2022-10-19T03:02:19.518Z,10.20
2022-10-19T03:07:18.098Z,10.20
2022-10-19T03:09:45.374Z,10.32
2022-10-19T03:12:12.850Z,10.48
2022-10-19T03:14:39.756Z,10.70
2022-10-19T03:17:06.929Z,11.04
2022-10-19T03:19:34.742Z,11.31
2022-10-19T03:22:01.693Z,11.55
2022-10-19T03:24:30.293Z,11.65
2022-10-19T03:26:57.168Z,11.79
2022-10-19T03:29:24.016Z,11.80
2022-10-19T03:31:51.390Z,11.74
2022-10-19T03:34:21.078Z,11.52
2022-10-19T03:36:50.986Z,11.40
2022-10-19T03:39:20.979Z,11.34
2022-10-19T03:41:47.817Z,11.25
2022-10-19T03:44:14.654Z,11.15
2022-10-19T03:46:41.797Z,11.20
2022-10-19T03:49:09.313Z,11.07
2022-10-19T03:51:36.392Z,11.08
2022-10-19T03:54:09.087Z,10.94
2022-10-19T03:56:36.436Z,10.89
2022-10-19T03:59:05.144Z,10.87
2022-10-19T04:01:43.893Z,10.85
2022-10-19T04:04:17.284Z,10.84
2022-10-19T04:06:45.909Z,10.84
2022-10-19T04:09:22.509Z,10.90
2022-10-19T04:11:52.248Z,11.08
2022-10-19T04:14:31.691Z,11.26
2022-10-19T04:17:01.031Z,11.49
2022-10-19T04:19:28.247Z,11.63
2022-10-19T04:21:55.205Z,11.67
2022-10-19T04:24:22.149Z,11.64
2022-10-19T04:26:54.354Z,11.62
2022-10-19T04:29:25.068Z,11.65
2022-10-19T04:31:55.117Z,11.58
2022-10-19T04:34:22.027Z,11.49
2022-10-19T04:36:53.065Z,11.42
2022-10-19T04:39:23.188Z,11.47
2022-10-19T04:41:50.021Z,11.56
2022-10-19T04:44:19.217Z,11.65
2022-10-19T04:46:48.434Z,11.63
2022-10-19T04:49:17.957Z,11.69
2022-10-19T04:51:50.088Z,11.63
2022-10-19T04:54:16.962Z,11.55
2022-10-19T04:56:43.803Z,11.53
2022-10-19T04:59:10.894Z,11.48
2022-10-19T05:01:38.243Z,11.42
2022-10-19T05:04:05.074Z,11.35
2022-10-19T05:06:32.375Z,11.30
2022-10-19T05:08:59.938Z,11.24
2022-10-19T05:11:27.194Z,11.18
2022-10-19T05:13:54.310Z,11.04
2022-10-19T05:16:22.791Z,10.90
2022-10-19T05:18:56.176Z,10.89
2022-10-19T05:21:23.393Z,10.95
2022-10-19T05:23:54.491Z,11.04
2022-10-19T05:26:23.551Z,11.00
2022-10-19T05:28:56.557Z,10.94
2022-10-19T05:31:26.028Z,10.88
2022-10-19T05:33:53.205Z,10.98
2022-10-19T05:36:25.523Z,10.93
2022-10-19T05:38:53.740Z,11.04
2022-10-19T05:41:21.601Z,11.16
2022-10-19T05:43:55.695Z,11.13
2022-10-19T05:46:23.167Z,11.16
2022-10-19T05:48:50.032Z,11.26
2022-10-19T05:51:19.700Z,11.41
2022-10-19T05:53:46.812Z,11.45
2022-10-19T05:56:18.666Z,11.54
2022-10-19T05:58:45.854Z,11.63
2022-10-19T06:01:13.998Z,11.63
2022-10-19T06:03:41.367Z,11.72
2022-10-19T06:06:09.249Z,11.74
2022-10-19T06:08:36.111Z,11.86
2022-10-19T06:11:12.927Z,12.61
2022-10-19T06:13:40.604Z,13.77
2022-10-19T06:16:08.917Z,14.65
2022-10-19T06:18:35.862Z,15.29
2022-10-19T06:21:04.496Z,15.69
2022-10-19T06:23:32.819Z,16.06
2022-10-19T06:26:02.735Z,16.29
2022-10-19T06:28:29.613Z,16.53
2022-10-19T06:30:58.187Z,16.39
2022-10-19T06:33:25.748Z,16.42
2022-10-19T06:35:52.753Z,16.74
2022-10-19T06:38:19.858Z,16.57
2022-10-19T06:40:46.738Z,16.80
2022-10-19T06:43:13.585Z,16.75
2022-10-19T06:45:40.793Z,17.15
2022-10-19T06:48:07.964Z,17.27
2022-10-19T06:50:35.419Z,17.18
2022-10-19T06:53:02.641Z,17.35
2022-10-19T06:55:29.509Z,17.65
2022-10-19T06:57:58.582Z,17.55
2022-10-19T07:00:25.754Z,18.11
2022-10-19T07:02:52.711Z,17.97
2022-10-19T07:05:19.710Z,17.90
2022-10-19T07:07:47.120Z,17.88
2022-10-19T07:10:13.976Z,18.05
2022-10-19T07:12:40.833Z,17.99
2022-10-19T07:15:08.393Z,18.22
2022-10-19T07:17:38.074Z,18.15
2022-10-19T07:20:05.352Z,18.22
2022-10-19T07:22:32.494Z,18.20
2022-10-19T07:24:59.351Z,18.84
2022-10-19T07:27:26.234Z,18.64
2022-10-19T07:29:53.336Z,18.25
2022-10-19T07:32:20.191Z,18.73
2022-10-19T07:34:47.362Z,18.82
2022-10-19T07:37:14.481Z,17.70
2022-10-19T07:39:41.337Z,17.93
2022-10-19T07:42:08.271Z,18.48
2022-10-19T07:44:35.535Z,17.94
2022-10-19T07:47:04.620Z,18.46
2022-10-19T07:49:31.479Z,18.06
2022-10-19T07:51:59.066Z,18.59
2022-10-19T07:54:27.411Z,18.64
2022-10-19T07:56:54.349Z,18.08
2022-10-19T07:59:21.462Z,18.24
2022-10-19T08:01:53.050Z,18.69
2022-10-19T08:07:10.838Z,18.26
2022-10-19T08:09:52.786Z,18.27
2022-10-19T08:12:20.634Z,18.54
2022-10-19T08:14:48.212Z,18.55
2022-10-19T08:17:17.601Z,18.99
2022-10-19T08:19:48.165Z,18.83
2022-10-19T08:22:15.355Z,18.75
2022-10-19T08:24:42.210Z,19.13
2022-10-19T08:27:09.217Z,19.57
2022-10-19T08:29:36.383Z,19.77
2022-10-19T08:32:06.114Z,20.28
2022-10-19T08:34:33.315Z,20.28
2022-10-19T08:37:06.771Z,20.36
2022-10-19T08:39:41.882Z,20.15
2022-10-19T08:42:16.483Z,19.90
2022-10-19T08:44:58.483Z,20.61
2022-10-19T08:47:28.506Z,20.52
2022-10-19T08:49:56.043Z,20.76
2022-10-19T08:52:30.748Z,21.48
2022-10-19T08:55:09.150Z,21.97
2022-10-19T08:57:52.978Z,21.01
2022-10-19T09:03:27.264Z,23.17
2022-10-19T09:06:44.853Z,23.22
2022-10-19T09:09:13.170Z,23.46
2022-10-19T09:11:43.191Z,24.35
2022-10-19T09:14:19.013Z,23.91
2022-10-19T09:16:46.421Z,24.05
2022-10-19T09:19:25.906Z,22.84
2022-10-19T09:21:57.513Z,24.52
2022-10-19T09:24:44.234Z,25.97
2022-10-19T09:27:21.256Z,25.90
2022-10-19T09:29:52.518Z,26.69
2022-10-19T09:32:24.683Z,23.41
2022-10-19T09:34:53.349Z,22.22
2022-10-19T09:37:25.939Z,21.61
2022-10-19T09:39:55.624Z,20.21
2022-10-19T09:42:26.403Z,19.69
2022-10-19T09:44:55.294Z,20.06
2022-10-19T09:47:37.673Z,19.69
2022-10-19T09:50:14.541Z,20.28
2022-10-19T09:52:43.897Z,20.51
2022-10-19T09:55:13.646Z,20.36
2022-10-19T09:57:43.972Z,20.30
2022-10-19T10:00:22.625Z,20.03
2022-10-19T10:02:54.507Z,19.56
2022-10-19T10:05:31.578Z,19.52
2022-10-19T10:07:58.768Z,19.32
2022-10-19T10:10:35.733Z,19.09
2022-10-19T10:13:03.131Z,19.09
2022-10-19T10:15:36.896Z,18.97
2022-10-19T10:18:04.117Z,19.00
2022-10-19T10:20:32.608Z,19.03
2022-10-19T10:23:05.919Z,19.28
2022-10-19T10:25:34.911Z,19.03
2022-10-19T10:28:21.824Z,18.97
2022-10-19T10:31:02.805Z,18.79
2022-10-19T10:33:44.216Z,18.79
2022-10-19T10:36:12.465Z,18.75
2022-10-19T10:38:49.546Z,18.71
2022-10-19T10:41:18.680Z,18.66
2022-10-19T10:43:57.552Z,18.58
2022-10-19T10:46:29.628Z,18.62
2022-10-19T10:49:02.436Z,18.62
2022-10-19T10:51:39.802Z,18.57
2022-10-19T10:54:25.582Z,18.50
2022-10-19T10:57:13.131Z,18.61
2022-10-19T10:59:49.146Z,18.74
2022-10-19T11:02:32.819Z,18.52
2022-10-19T11:05:07.701Z,18.59
2022-10-19T11:07:36.082Z,18.47
2022-10-19T11:10:30.588Z,18.41
2022-10-19T11:13:17.382Z,18.36
2022-10-19T11:15:53.099Z,18.45
2022-10-19T11:18:30.573Z,18.59
2022-10-19T11:21:12.062Z,18.69
2022-10-19T11:23:48.398Z,18.66
2022-10-19T11:26:25.129Z,18.78
2022-10-19T11:29:14.026Z,18.70
2022-10-19T11:31:49.232Z,18.75
2022-10-19T11:34:31.525Z,18.67
2022-10-19T11:37:23.128Z,18.67
2022-10-19T11:40:09.163Z,18.58
2022-10-19T11:43:15.573Z,18.71
2022-10-19T11:45:54.658Z,18.87
2022-10-19T11:48:28.287Z,18.71
2022-10-19T11:51:16.976Z,18.42
2022-10-19T11:53:54.811Z,18.28
2022-10-19T11:57:01.690Z,18.38
2022-10-19T11:59:32.076Z,18.38
2022-10-19T12:02:42.011Z,18.16
2022-10-19T12:05:20.102Z,18.04
2022-10-19T12:08:14.382Z,17.75
2022-10-19T12:10:48.545Z,17.61
2022-10-19T12:13:21.943Z,17.51
2022-10-19T12:15:53.915Z,17.71
2022-10-19T12:18:23.547Z,17.66
2022-10-19T12:20:52.454Z,17.46
2022-10-19T12:23:26.859Z,17.41
2022-10-19T12:25:56.607Z,17.60
2022-10-19T12:28:31.844Z,17.82
2022-10-19T12:31:00.037Z,18.14
2022-10-19T12:33:41.062Z,18.32
2022-10-19T12:36:26.680Z,18.45
2022-10-19T12:39:05.152Z,18.31
2022-10-19T12:41:54.042Z,18.37
2022-10-19T12:44:42.718Z,18.22
2022-10-19T12:47:19.558Z,18.18
2022-10-19T12:49:51.138Z,18.17
2022-10-19T12:52:40.039Z,18.22
2022-10-19T12:55:15.870Z,18.36
2022-10-19T12:57:47.980Z,18.20
2022-10-19T13:00:25.765Z,18.13
2022-10-19T13:03:17.422Z,18.11
2022-10-19T13:05:56.900Z,17.99
2022-10-19T13:08:33.132Z,18.01
2022-10-19T13:11:06.312Z,18.05
2022-10-19T13:14:24.918Z,17.99
2022-10-19T13:17:01.445Z,17.94
2022-10-19T13:19:29.311Z,17.94
2022-10-19T13:22:02.065Z,18.01
2022-10-19T13:24:34.810Z,18.05
2022-10-19T13:27:04.769Z,18.13
2022-10-19T13:29:38.397Z,18.28
2022-10-19T13:32:33.346Z,18.22
2022-10-19T13:35:27.120Z,18.02
2022-10-19T13:38:09.120Z,18.05
2022-10-19T13:40:55.978Z,17.90
2022-10-19T13:43:24.179Z,17.89
2022-10-19T13:45:59.253Z,18.10
2022-10-19T13:48:45.259Z,18.46
2022-10-19T13:51:40.560Z,18.72
2022-10-19T13:54:19.722Z,18.42
2022-10-19T13:57:09.415Z,18.03
2022-10-19T13:59:54.785Z,17.90
2022-10-19T14:03:09.329Z,17.84
2022-10-19T14:05:57.064Z,17.89
2022-10-19T14:08:30.081Z,17.84
2022-10-19T14:11:03.806Z,17.71
2022-10-19T14:13:31.273Z,17.68
2022-10-19T14:16:02.805Z,17.66
2022-10-19T14:18:34.526Z,17.58
2022-10-19T14:21:05.339Z,17.62
2022-10-19T14:23:39.760Z,17.92
2022-10-19T14:26:21.974Z,17.68
2022-10-19T14:28:54.181Z,17.33
2022-10-19T14:31:23.976Z,17.19
2022-10-19T14:33:52.389Z,17.03
2022-10-19T14:36:25.534Z,16.89
2022-10-19T14:38:56.303Z,16.89
2022-10-19T14:41:28.856Z,16.82
2022-10-19T14:43:57.311Z,16.79
2022-10-19T14:46:30.406Z,16.66
2022-10-19T14:49:06.544Z,16.49
2022-10-19T14:51:40.945Z,16.38
2022-10-19T14:54:23.404Z,16.36
2022-10-19T14:56:56.377Z,16.25
2022-10-19T14:59:27.019Z,16.16
2022-10-19T15:01:56.262Z,16.01
2022-10-19T15:04:32.712Z,15.94
2022-10-19T15:07:01.479Z,15.98
2022-10-19T15:09:43.712Z,15.97
2022-10-19T15:12:16.973Z,15.91
2022-10-19T15:14:44.461Z,15.88
2022-10-19T15:17:25.304Z,15.78
2022-10-19T15:19:53.587Z,15.68
2022-10-19T15:22:28.094Z,15.63
2022-10-19T15:24:59.926Z,15.54
2022-10-19T15:27:50.050Z,15.54
2022-10-19T15:30:17.142Z,15.40
2022-10-19T15:32:45.667Z,15.31
2022-10-19T15:35:20.046Z,15.22
2022-10-19T15:37:48.695Z,15.21
2022-10-19T15:40:36.245Z,15.16
2022-10-19T15:43:25.066Z,14.99
2022-10-19T15:46:03.295Z,14.83
2022-10-19T15:48:42.886Z,14.74
2022-10-19T15:51:24.829Z,14.63
2022-10-19T15:53:52.621Z,14.57
2022-10-19T15:56:20.169Z,14.48
2022-10-19T15:58:51.426Z,14.43
2022-10-19T16:01:22.516Z,14.35
2022-10-19T16:03:49.767Z,14.25
2022-10-19T16:06:17.738Z,14.20
2022-10-19T16:08:46.418Z,14.09
2022-10-19T16:11:18.101Z,13.96
2022-10-19T16:13:45.526Z,13.90
2022-10-19T16:16:15.635Z,13.88
2022-10-19T16:18:42.744Z,13.77
2022-10-19T16:21:09.610Z,13.75
2022-10-19T16:23:41.812Z,13.67
2022-10-19T16:26:09.846Z,13.67
2022-10-19T16:28:36.721Z,13.63
2022-10-19T16:31:03.639Z,13.59
2022-10-19T16:33:30.750Z,13.54
2022-10-19T16:35:57.607Z,13.41
2022-10-19T16:38:24.520Z,13.37
2022-10-19T16:40:51.716Z,13.29
2022-10-19T16:43:18.621Z,13.22
2022-10-19T16:45:45.484Z,13.14
2022-10-19T16:48:12.847Z,13.13
2022-10-19T16:50:39.775Z,13.11
2022-10-19T16:53:10.339Z,13.14
2022-10-19T16:55:38.278Z,13.10
2022-10-19T16:58:05.539Z,13.05
2022-10-19T17:00:32.939Z,13.06
2022-10-19T17:03:00.047Z,12.94
2022-10-19T17:05:26.957Z,12.94
2022-10-19T17:07:53.847Z,12.94
2022-10-19T17:10:21.046Z,12.90
2022-10-19T17:12:47.967Z,12.86
2022-10-19T17:15:44.697Z,12.84
2022-10-19T17:18:01.935Z,12.75
2022-10-19T17:20:29.030Z,12.68
2022-10-19T17:22:55.899Z,12.66
2022-10-19T17:25:23.026Z,12.63
2022-10-19T17:27:50.894Z,12.58
2022-10-19T17:30:18.039Z,12.46
2022-10-19T17:32:45.159Z,12.40
2022-10-19T17:35:12.011Z,12.41
2022-10-19T17:37:38.929Z,12.36
2022-10-19T17:40:06.651Z,12.35
2022-10-19T17:42:36.522Z,12.25
2022-10-19T17:45:03.570Z,12.22
2022-10-19T17:47:30.773Z,12.17
2022-10-19T17:49:57.695Z,12.15
2022-10-19T17:52:24.576Z,12.03
2022-10-19T17:55:11.097Z,12.05
2022-10-19T17:57:38.588Z,12.03
2022-10-19T18:00:07.214Z,11.93
2022-10-19T18:02:39.824Z,11.96
2022-10-19T18:05:07.327Z,11.96
2022-10-19T18:07:34.427Z,11.91
2022-10-19T18:10:01.602Z,11.90
2022-10-19T18:12:28.734Z,11.85
2022-10-19T18:14:55.585Z,11.83
2022-10-19T18:17:25.439Z,11.81
2022-10-19T18:19:54.872Z,11.80
2022-10-19T18:22:21.869Z,11.74
2022-10-19T18:24:49.554Z,11.76
2022-10-19T18:27:16.675Z,11.71
2022-10-19T18:29:43.551Z,11.69
2022-10-19T18:32:11.712Z,11.62
2022-10-19T18:34:38.852Z,11.57
2022-10-19T18:37:07.210Z,11.57
2022-10-19T18:39:34.175Z,11.49
2022-10-19T18:42:01.269Z,11.41
2022-10-19T18:44:30.419Z,11.36
2022-10-19T18:46:59.481Z,11.34
2022-10-19T18:49:26.655Z,11.26
2022-10-19T18:51:55.470Z,11.24
2022-10-19T18:54:24.101Z,11.13
2022-10-19T18:56:51.228Z,10.98
2022-10-19T18:59:20.728Z,10.88
2022-10-19T19:01:47.637Z,10.86
2022-10-19T19:04:16.330Z,10.82
2022-10-19T19:06:43.198Z,10.90
2022-10-19T19:09:11.264Z,10.95
2022-10-19T19:11:40.846Z,10.88
2022-10-19T19:14:10.589Z,10.85
2022-10-19T19:16:38.551Z,10.75
2022-10-19T19:19:06.394Z,10.78
2022-10-19T19:21:35.007Z,10.74
2022-10-19T19:24:03.976Z,10.63
2022-10-19T19:26:33.503Z,10.61
2022-10-19T19:29:00.378Z,10.65
2022-10-19T19:31:27.256Z,10.53
2022-10-19T19:33:54.381Z,10.45
2022-10-19T19:36:21.419Z,10.31
2022-10-19T19:38:50.637Z,10.26
2022-10-19T19:41:17.835Z,10.26
2022-10-19T19:43:44.822Z,10.30
2022-10-19T19:46:14.551Z,10.19
2022-10-19T19:48:43.125Z,10.11
2022-10-19T19:51:17.902Z,10.05
2022-10-19T19:53:46.119Z,10.04
2022-10-19T19:56:14.290Z,10.08
2022-10-19T19:58:42.108Z,10.07
2022-10-19T20:01:17.074Z,9.98
2022-10-19T20:03:45.788Z,9.87
2022-10-19T20:06:14.285Z,9.88
2022-10-19T20:08:41.229Z,9.99
2022-10-19T20:11:10.967Z,10.05
2022-10-19T20:13:38.279Z,10.08
2022-10-19T20:16:16.314Z,10.15
2022-10-19T20:18:45.147Z,10.22
2022-10-19T20:21:12.698Z,10.17
2022-10-19T20:23:39.609Z,10.11
2022-10-19T20:26:09.011Z,10.04
2022-10-19T20:28:35.847Z,9.95
2022-10-19T20:31:07.626Z,9.94
2022-10-19T20:33:37.378Z,9.91
2022-10-19T20:36:06.478Z,9.85
2022-10-19T20:38:34.491Z,9.84
2022-10-19T20:41:08.047Z,9.78
2022-10-19T20:43:36.573Z,9.67
2022-10-19T20:46:12.726Z,9.59
2022-10-19T20:48:40.367Z,9.51
2022-10-19T20:51:12.053Z,9.50
2022-10-19T20:53:39.154Z,9.45
2022-10-19T20:56:07.838Z,9.41
2022-10-19T20:58:35.917Z,9.36
2022-10-19T21:01:06.991Z,9.31
2022-10-19T21:03:34.110Z,9.27
2022-10-19T21:06:08.484Z,9.26
2022-10-19T21:08:36.479Z,9.19
2022-10-19T21:11:18.428Z,9.20
2022-10-19T21:13:46.100Z,9.21
2022-10-19T21:16:17.751Z,9.13
2022-10-19T21:18:45.535Z,9.09
2022-10-19T21:21:24.097Z,9.02
2022-10-19T21:23:54.269Z,9.02
2022-10-19T21:26:21.609Z,9.04
2022-10-19T21:28:49.833Z,8.98
2022-10-19T21:31:17.310Z,8.94
2022-10-19T21:33:44.830Z,9.02
2022-10-19T21:36:12.889Z,9.00
2022-10-19T21:38:40.226Z,8.99
2022-10-19T21:41:15.171Z,9.06
2022-10-19T21:43:42.576Z,9.06
2022-10-19T21:46:17.726Z,9.08
2022-10-19T21:48:44.965Z,9.03
2022-10-19T21:51:29.786Z,9.04
2022-10-19T21:53:56.744Z,9.03
2022-10-19T21:56:23.922Z,9.04
2022-10-19T21:58:53.270Z,9.01
2022-10-19T22:01:22.870Z,9.02
2022-10-19T22:03:50.305Z,9.01
2022-10-19T22:06:17.210Z,9.00
2022-10-19T22:08:45.871Z,9.01
2022-10-19T22:11:13.638Z,8.98
2022-10-19T22:13:41.391Z,8.96
2022-10-19T22:16:11.343Z,8.91
2022-10-19T22:18:38.475Z,8.89
2022-10-19T22:21:07.312Z,8.96
2022-10-19T22:23:34.194Z,8.91
2022-10-19T22:26:01.310Z,8.86
2022-10-19T22:28:28.510Z,8.79
2022-10-19T22:30:58.980Z,8.84
2022-10-19T22:33:25.977Z,8.82
2022-10-19T22:35:57.154Z,8.72
2022-10-19T22:38:24.738Z,8.64
2022-10-19T22:40:51.858Z,8.59
2022-10-19T22:43:19.378Z,8.62
2022-10-19T22:45:47.769Z,8.59
2022-10-19T22:48:16.104Z,8.54
2022-10-19T22:50:43.438Z,8.55
2022-10-19T22:53:10.826Z,8.45
2022-10-19T22:55:38.419Z,8.44
2022-10-19T22:58:06.744Z,8.38
2022-10-19T23:00:33.687Z,8.37
2022-10-19T23:03:00.878Z,8.31
2022-10-19T23:05:27.796Z,8.37
2022-10-19T23:07:54.682Z,8.35
2022-10-19T23:10:21.878Z,8.30
2022-10-19T23:12:50.486Z,8.32
2022-10-19T23:15:17.827Z,8.27
2022-10-19T23:17:45.018Z,8.26
2022-10-19T23:20:12.728Z,8.22
2022-10-19T23:22:40.170Z,8.18
2022-10-19T23:25:07.705Z,8.07
2022-10-19T23:27:34.796Z,7.95
2022-10-19T23:30:02.471Z,7.86
2022-10-19T23:32:29.643Z,7.86
2022-10-19T23:34:56.843Z,7.82
2022-10-19T23:37:23.732Z,7.86
2022-10-19T23:39:50.864Z,7.93
2022-10-19T23:42:17.742Z,7.94
2022-10-19T23:44:44.580Z,8.05
2022-10-19T23:47:11.693Z,7.98
2022-10-19T23:49:38.547Z,7.90
2022-10-19T23:52:05.509Z,7.79
2022-10-19T23:54:32.714Z,7.75
2022-10-19T23:56:59.681Z,7.70
2022-10-19T23:59:26.527Z,7.76
